createdAt,value
2019-02-21T00:01:25.890Z,96.20
2019-02-21T00:03:58.826Z,96.10
2019-02-21T00:06:31.785Z,96.00
2019-02-21T00:09:05.372Z,96.00
2019-02-21T00:11:38.306Z,95.60
2019-02-21T00:14:11.606Z,95.70
2019-02-21T00:16:44.534Z,95.80
2019-02-21T00:19:17.345Z,95.70
2019-02-21T00:21:57.649Z,95.60
2019-02-21T00:24:33.225Z,95.60
2019-02-21T00:27:06.112Z,95.70
2019-02-21T00:29:51.553Z,95.90
2019-02-21T00:32:25.705Z,96.00
2019-02-21T00:35:09.185Z,95.70
2019-02-21T00:37:42.045Z,95.50
2019-02-21T00:40:14.965Z,96.10
2019-02-21T00:42:47.865Z,96.10
2019-02-21T00:45:20.967Z,96.50
2019-02-21T00:47:53.750Z,96.30
2019-02-21T00:50:26.985Z,96.80
2019-02-21T00:52:59.965Z,96.90
2019-02-21T00:55:32.766Z,97.00
2019-02-21T00:58:05.565Z,97.00
2019-02-21T01:00:46.184Z,97.00
2019-02-21T01:03:13.208Z,96.80
2019-02-21T01:05:46.126Z,97.10
2019-02-21T01:08:19.368Z,97.20
2019-02-21T01:10:52.906Z,97.10
2019-02-21T01:13:25.805Z,97.50
2019-02-21T01:15:59.205Z,97.50
2019-02-21T01:18:32.369Z,97.50
2019-02-21T01:21:05.430Z,97.50
2019-02-21T01:23:38.644Z,97.40
2019-02-21T01:26:11.725Z,97.50
2019-02-21T01:28:44.705Z,97.50
2019-02-21T01:31:17.809Z,97.50
2019-02-21T01:33:50.804Z,97.50
2019-02-21T01:36:24.645Z,97.50
2019-02-21T01:38:57.693Z,97.30
2019-02-21T01:41:30.605Z,97.40
2019-02-21T01:44:04.688Z,97.50
2019-02-21T01:46:40.686Z,97.30
2019-02-21T01:49:14.804Z,97.10
2019-02-21T01:51:47.665Z,97.00
2019-02-21T01:54:20.708Z,96.90
2019-02-21T01:56:53.605Z,96.90
2019-02-21T01:59:26.704Z,96.80
2019-02-21T02:01:59.585Z,96.40
2019-02-21T02:04:32.725Z,96.70
2019-02-21T02:07:05.486Z,96.30
2019-02-21T02:09:39.365Z,96.80
2019-02-21T02:12:16.545Z,97.00
2019-02-21T02:14:49.685Z,96.80
2019-02-21T02:17:22.666Z,97.10
2019-02-21T02:19:55.645Z,96.90
2019-02-21T02:22:28.565Z,96.60
2019-02-21T02:25:01.902Z,96.90
2019-02-21T02:27:34.965Z,97.00
2019-02-21T02:30:07.987Z,97.00
2019-02-21T02:32:40.747Z,97.50
2019-02-21T02:35:13.765Z,96.20
2019-02-21T02:37:46.707Z,97.40
2019-02-21T02:40:20.007Z,97.70
2019-02-21T02:42:52.986Z,97.90
2019-02-21T02:45:26.292Z,98.30
2019-02-21T02:47:59.209Z,98.30
2019-02-21T02:50:32.397Z,98.60
2019-02-21T02:53:05.405Z,98.70
2019-02-21T02:55:38.426Z,98.60
2019-02-21T02:58:11.245Z,98.50
2019-02-21T03:00:44.009Z,98.60
2019-02-21T03:03:16.945Z,98.60
2019-02-21T03:05:49.984Z,98.70
2019-02-21T03:08:22.947Z,98.50
2019-02-21T03:10:55.865Z,98.70
2019-02-21T03:13:28.725Z,98.80
2019-02-21T03:16:01.487Z,98.40
2019-02-21T03:18:34.865Z,98.50
2019-02-21T03:21:07.666Z,98.40
2019-02-21T03:23:40.552Z,98.40
2019-02-21T03:26:13.545Z,98.10
2019-02-21T03:28:46.485Z,98.30
2019-02-21T03:31:19.908Z,98.30
2019-02-21T03:33:52.826Z,98.10
2019-02-21T03:36:25.746Z,98.40
2019-02-21T03:38:58.676Z,98.20
2019-02-21T03:41:31.783Z,98.20
2019-02-21T03:44:05.145Z,98.40
2019-02-21T03:46:38.052Z,98.50
2019-02-21T03:49:10.973Z,98.60
2019-02-21T03:51:44.067Z,98.70
2019-02-21T03:54:16.865Z,98.60
2019-02-21T03:56:52.704Z,98.50
2019-02-21T03:59:25.825Z,98.80
2019-02-21T04:02:05.438Z,98.90
2019-02-21T04:04:33.435Z,99.10
2019-02-21T04:07:06.546Z,99.20
2019-02-21T04:09:39.305Z,99.10
2019-02-21T04:12:12.226Z,99.40
2019-02-21T04:14:45.008Z,99.50
2019-02-21T04:17:18.386Z,99.60
2019-02-21T04:19:51.284Z,99.60
2019-02-21T04:22:26.429Z,99.70
2019-02-21T04:24:59.325Z,99.90
2019-02-21T04:27:32.129Z,99.70
2019-02-21T04:30:05.026Z,99.60
2019-02-21T04:32:37.905Z,98.70
2019-02-21T04:35:10.888Z,98.70
2019-02-21T04:37:45.027Z,98.80
2019-02-21T04:40:17.804Z,99.10
2019-02-21T04:42:52.945Z,98.70
2019-02-21T04:45:25.967Z,99.10
2019-02-21T04:47:58.845Z,99.00
2019-02-21T04:50:32.065Z,99.00
2019-02-21T04:53:16.107Z,98.90
2019-02-21T04:55:49.125Z,98.70
2019-02-21T04:58:22.625Z,98.50
2019-02-21T05:00:55.485Z,98.40
2019-02-21T05:03:28.526Z,98.30
2019-02-21T05:06:01.406Z,98.70
2019-02-21T05:08:34.385Z,98.60
2019-02-21T05:11:07.164Z,98.90
2019-02-21T05:13:40.105Z,98.90
2019-02-21T05:16:12.885Z,98.90
2019-02-21T05:18:46.924Z,99.00
2019-02-21T05:21:20.965Z,98.80
2019-02-21T05:23:53.965Z,98.70
2019-02-21T05:26:29.586Z,98.70
2019-02-21T05:29:03.947Z,98.80
2019-02-21T05:32:06.947Z,99.00
2019-02-21T05:34:47.545Z,99.40
2019-02-21T05:37:29.205Z,99.50
2019-02-21T05:40:07.727Z,99.60
2019-02-21T05:42:54.525Z,99.90
2019-02-21T05:45:32.251Z,99.90
2019-02-21T05:48:09.705Z,99.90
2019-02-21T05:51:00.475Z,99.90
2019-02-21T05:53:35.850Z,99.90
2019-02-21T05:56:20.606Z,99.90
2019-02-21T05:59:09.265Z,99.90
2019-02-21T06:01:46.926Z,99.90
2019-02-21T06:04:38.645Z,99.90
2019-02-21T06:07:16.086Z,99.90
2019-02-21T06:09:50.505Z,99.90
2019-02-21T06:12:33.129Z,99.90
2019-02-21T06:15:01.056Z,99.90
2019-02-21T06:17:54.048Z,99.10
2019-02-21T06:20:33.675Z,99.10
2019-02-21T06:23:08.486Z,98.30
2019-02-21T06:25:51.078Z,98.70
2019-02-21T06:28:24.507Z,98.50
2019-02-21T06:30:59.052Z,98.40
2019-02-21T06:33:32.538Z,97.90
2019-02-21T06:36:07.198Z,98.30
2019-02-21T06:38:41.263Z,98.50
2019-02-21T06:41:15.166Z,98.70
2019-02-21T06:43:49.128Z,98.60
2019-02-21T06:46:21.987Z,98.80
2019-02-21T06:48:54.953Z,98.20
2019-02-21T06:51:27.806Z,98.00
2019-02-21T06:54:01.014Z,98.10
2019-02-21T06:56:33.973Z,97.90
2019-02-21T06:59:07.025Z,98.10
2019-02-21T07:01:45.292Z,97.80
2019-02-21T07:04:18.326Z,97.80
2019-02-21T07:06:56.782Z,97.20
2019-02-21T07:09:29.406Z,97.40
2019-02-21T07:12:02.459Z,97.80
2019-02-21T07:14:37.269Z,97.30
2019-02-21T07:17:10.147Z,97.10
2019-02-21T07:19:43.985Z,97.00
2019-02-21T07:22:20.073Z,97.10
2019-02-21T07:24:54.176Z,97.20
2019-02-21T07:27:27.865Z,97.30
2019-02-21T07:30:00.967Z,97.10
2019-02-21T07:32:36.011Z,97.20
2019-02-21T07:35:09.054Z,96.80
2019-02-21T07:37:42.363Z,96.70
2019-02-21T07:40:20.054Z,96.40
2019-02-21T07:42:50.027Z,96.20
2019-02-21T07:45:22.967Z,96.00
2019-02-21T07:47:55.851Z,96.00
2019-02-21T07:50:30.747Z,94.60
2019-02-21T07:53:03.348Z,93.60
2019-02-21T07:55:38.428Z,94.10
2019-02-21T07:58:12.887Z,92.80
2019-02-21T08:00:45.866Z,92.40
2019-02-21T08:03:29.790Z,92.10
2019-02-21T08:05:54.344Z,92.10
2019-02-21T08:08:27.150Z,92.10
2019-02-21T08:11:00.147Z,92.00
2019-02-21T08:13:32.967Z,92.10
2019-02-21T08:16:06.868Z,92.60
2019-02-21T08:18:39.787Z,92.30
2019-02-21T08:21:13.807Z,92.10
2019-02-21T08:23:50.742Z,92.90
2019-02-21T08:26:23.767Z,92.80
2019-02-21T08:28:56.704Z,92.70
2019-02-21T08:31:29.787Z,91.80
2019-02-21T08:34:04.542Z,91.90
2019-02-21T08:36:38.092Z,92.30
2019-02-21T08:39:11.141Z,91.70
2019-02-21T08:41:44.232Z,91.90
2019-02-21T08:44:17.246Z,91.70
2019-02-21T08:46:50.344Z,92.10
2019-02-21T08:49:23.484Z,91.30
2019-02-21T08:51:56.388Z,90.50
2019-02-21T08:54:29.352Z,90.40
2019-02-21T08:57:03.217Z,90.10
2019-02-21T08:59:36.426Z,89.60
2019-02-21T09:07:56.628Z,87.10
2019-02-21T09:10:29.545Z,88.50
2019-02-21T09:13:02.457Z,89.80
2019-02-21T09:15:35.785Z,88.10
2019-02-21T09:18:08.745Z,88.40
2019-02-21T09:20:41.625Z,88.20
2019-02-21T09:23:15.880Z,87.50
2019-02-21T09:25:49.700Z,88.20
2019-02-21T09:28:24.565Z,90.10
2019-02-21T09:30:57.945Z,89.20
2019-02-21T09:33:30.984Z,90.20
2019-02-21T09:36:03.907Z,89.90
2019-02-21T09:38:36.671Z,89.50
2019-02-21T09:41:10.185Z,90.00
2019-02-21T09:43:43.045Z,89.60
2019-02-21T09:46:15.906Z,89.60
2019-02-21T09:48:49.082Z,88.90
2019-02-21T09:51:22.044Z,90.00
2019-02-21T09:53:54.865Z,90.10
2019-02-21T09:56:30.688Z,90.20
2019-02-21T09:59:02.299Z,90.10
2019-02-21T10:01:35.485Z,89.60
2019-02-21T10:04:08.365Z,89.20
2019-02-21T10:06:41.454Z,90.00
2019-02-21T10:09:14.425Z,90.10
2019-02-21T10:11:47.307Z,89.30
2019-02-21T10:14:21.594Z,88.60
2019-02-21T10:16:54.645Z,88.00
2019-02-21T10:19:27.526Z,87.20
2019-02-21T10:22:00.799Z,87.80
2019-02-21T10:24:33.924Z,87.50
2019-02-21T10:27:06.985Z,87.50
2019-02-21T10:29:39.950Z,87.50
2019-02-21T10:32:13.344Z,86.70
2019-02-21T10:34:46.576Z,85.60
2019-02-21T10:37:19.465Z,84.30
2019-02-21T10:39:52.358Z,83.70
2019-02-21T10:42:25.485Z,85.30
2019-02-21T10:44:59.006Z,84.00
2019-02-21T10:47:31.745Z,83.00
2019-02-21T10:50:04.584Z,83.40
2019-02-21T10:52:37.375Z,84.70
2019-02-21T10:55:10.213Z,84.90
2019-02-21T10:57:45.367Z,85.20
2019-02-21T11:00:20.565Z,85.90
2019-02-21T11:02:52.825Z,83.20
2019-02-21T11:05:25.985Z,84.20
2019-02-21T11:07:58.825Z,82.60
2019-02-21T11:10:33.325Z,83.60
2019-02-21T11:13:06.304Z,83.50
2019-02-21T11:15:41.922Z,82.30
2019-02-21T11:18:15.085Z,80.90
2019-02-21T11:20:48.084Z,79.20
2019-02-21T11:23:21.026Z,81.30
2019-02-21T11:25:54.025Z,84.20
2019-02-21T11:28:27.273Z,84.90
2019-02-21T11:31:00.253Z,79.50
2019-02-21T11:33:33.085Z,78.00
2019-02-21T11:36:05.932Z,79.00
2019-02-21T11:38:38.804Z,76.00
2019-02-21T11:41:11.806Z,75.90
2019-02-21T11:43:44.784Z,73.80
2019-02-21T11:46:17.964Z,74.20
2019-02-21T11:48:50.967Z,78.00
2019-02-21T11:51:23.945Z,75.20
2019-02-21T11:53:56.864Z,73.90
2019-02-21T11:56:30.723Z,72.30
2019-02-21T11:59:03.593Z,76.90
2019-02-21T12:01:36.408Z,74.60
2019-02-21T12:04:09.144Z,74.60
2019-02-21T12:06:42.027Z,76.70
2019-02-21T12:09:14.925Z,75.00
2019-02-21T12:11:47.904Z,72.60
2019-02-21T12:14:20.731Z,70.00
2019-02-21T12:16:54.252Z,68.30
2019-02-21T12:19:27.588Z,71.50
2019-02-21T12:22:00.525Z,68.10
2019-02-21T12:24:34.013Z,69.50
2019-02-21T12:27:06.992Z,71.30
2019-02-21T12:29:39.948Z,71.50
2019-02-21T12:32:13.076Z,70.10
2019-02-21T12:34:46.648Z,67.60
2019-02-21T12:37:19.725Z,65.60
2019-02-21T12:39:52.568Z,67.70
2019-02-21T12:42:25.480Z,64.50
2019-02-21T12:44:58.684Z,63.60
2019-02-21T12:47:31.944Z,62.70
2019-02-21T12:50:04.846Z,63.10
2019-02-21T12:52:38.246Z,62.70
2019-02-21T12:55:11.168Z,64.60
2019-02-21T12:57:44.348Z,67.20
2019-02-21T13:00:17.664Z,66.40
2019-02-21T13:02:50.667Z,65.20
2019-02-21T13:05:23.985Z,63.30
2019-02-21T13:07:57.029Z,64.30
2019-02-21T13:10:29.865Z,61.30
2019-02-21T13:13:02.804Z,62.90
2019-02-21T13:15:35.825Z,63.90
2019-02-21T13:18:15.834Z,65.00
2019-02-21T13:20:44.306Z,65.80
2019-02-21T13:23:17.985Z,64.10
2019-02-21T13:25:50.869Z,63.50
2019-02-21T13:28:23.790Z,62.40
2019-02-21T13:30:59.487Z,62.20
2019-02-21T13:33:31.673Z,60.00
2019-02-21T13:36:04.466Z,61.70
2019-02-21T13:38:37.445Z,63.30
2019-02-21T13:41:10.947Z,59.80
2019-02-21T13:43:44.186Z,61.30
2019-02-21T13:46:17.304Z,63.00
2019-02-21T13:48:50.483Z,63.10
2019-02-21T13:51:23.405Z,65.30
2019-02-21T13:53:56.535Z,65.10
2019-02-21T13:56:29.345Z,64.50
2019-02-21T13:59:02.578Z,62.00
2019-02-21T14:01:36.445Z,64.20
2019-02-21T14:04:09.385Z,64.80
2019-02-21T14:06:42.409Z,67.60
2019-02-21T14:09:15.387Z,69.40
2019-02-21T14:11:48.347Z,68.70
2019-02-21T14:14:21.874Z,67.10
2019-02-21T14:16:54.765Z,66.90
2019-02-21T14:19:27.705Z,66.20
2019-02-21T14:22:01.265Z,70.90
2019-02-21T14:24:37.137Z,68.90
2019-02-21T14:27:09.167Z,70.00
2019-02-21T14:29:42.143Z,68.60
2019-02-21T14:32:15.605Z,68.50
2019-02-21T14:34:48.584Z,68.40
2019-02-21T14:37:21.545Z,68.90
2019-02-21T14:39:54.783Z,67.30
2019-02-21T14:42:27.909Z,68.60
2019-02-21T14:45:01.277Z,68.70
2019-02-21T14:47:34.488Z,71.20
2019-02-21T14:50:07.574Z,69.60
2019-02-21T14:52:40.925Z,71.80
2019-02-21T14:55:13.906Z,71.50
2019-02-21T14:57:47.306Z,72.70
2019-02-21T15:00:20.624Z,73.40
2019-02-21T15:02:53.845Z,74.80
2019-02-21T15:05:26.845Z,74.40
2019-02-21T15:07:59.845Z,73.00
2019-02-21T15:10:32.804Z,75.00
2019-02-21T15:13:05.747Z,72.60
2019-02-21T15:15:38.532Z,70.80
2019-02-21T15:18:11.509Z,74.90
2019-02-21T15:20:44.786Z,76.70
2019-02-21T15:23:17.746Z,76.70
2019-02-21T15:25:50.785Z,78.00
2019-02-21T15:28:23.685Z,80.00
2019-02-21T15:30:56.485Z,81.00
2019-02-21T15:33:29.504Z,79.50
2019-02-21T15:36:02.368Z,79.70
2019-02-21T15:38:35.118Z,79.70
2019-02-21T15:41:08.045Z,81.80
2019-02-21T15:43:40.905Z,80.80
2019-02-21T15:46:13.704Z,79.60
2019-02-21T15:48:46.545Z,80.30
2019-02-21T15:51:19.434Z,80.70
2019-02-21T15:53:52.223Z,80.70
2019-02-21T15:56:25.168Z,80.20
2019-02-21T15:58:58.066Z,79.70
2019-02-21T16:01:30.985Z,80.00
2019-02-21T16:04:04.105Z,80.60
2019-02-21T16:06:39.297Z,81.30
2019-02-21T16:09:16.257Z,81.90
2019-02-21T16:11:46.538Z,82.40
2019-02-21T16:14:19.470Z,82.20
2019-02-21T16:16:52.630Z,82.00
2019-02-21T16:19:25.549Z,82.60
2019-02-21T16:21:58.520Z,83.20
2019-02-21T16:24:31.465Z,82.70
2019-02-21T16:27:04.384Z,83.20
2019-02-21T16:29:37.206Z,83.80
2019-02-21T16:32:10.086Z,84.30
2019-02-21T16:34:43.095Z,83.30
2019-02-21T16:37:16.045Z,83.80
2019-02-21T16:39:49.025Z,83.90
2019-02-21T16:42:22.108Z,83.50
2019-02-21T16:44:55.094Z,83.50
2019-02-21T16:47:27.984Z,84.20
2019-02-21T16:50:00.770Z,83.70
2019-02-21T16:52:33.685Z,84.00
2019-02-21T16:55:08.753Z,84.40
2019-02-21T16:57:41.165Z,84.70
2019-02-21T17:00:14.305Z,85.20
2019-02-21T17:02:47.125Z,85.10
2019-02-21T17:05:19.984Z,84.80
2019-02-21T17:07:52.851Z,84.50
2019-02-21T17:10:25.705Z,84.70
2019-02-21T17:12:58.965Z,83.80
2019-02-21T17:15:31.745Z,83.50
2019-02-21T17:18:04.650Z,84.50
2019-02-21T17:20:37.508Z,84.60
2019-02-21T17:23:10.395Z,84.90
2019-02-21T17:25:43.286Z,84.50
2019-02-21T17:28:16.271Z,84.00
2019-02-21T17:30:49.138Z,83.30
2019-02-21T17:33:22.130Z,84.30
2019-02-21T17:35:55.248Z,82.90
2019-02-21T17:38:28.089Z,82.40
2019-02-21T17:41:01.027Z,83.40
2019-02-21T17:43:33.928Z,83.30
2019-02-21T17:46:06.807Z,82.70
2019-02-21T17:48:39.824Z,82.60
2019-02-21T17:51:12.847Z,81.10
2019-02-21T17:53:45.787Z,81.00
2019-02-21T17:56:18.700Z,82.00
2019-02-21T17:58:51.567Z,81.60
2019-02-21T18:01:24.544Z,84.50
2019-02-21T18:03:57.505Z,85.90
2019-02-21T18:06:30.625Z,84.20
2019-02-21T18:09:05.404Z,83.40
2019-02-21T18:11:38.266Z,84.30
2019-02-21T18:14:11.033Z,85.50
2019-02-21T18:16:43.811Z,83.40
2019-02-21T18:19:21.668Z,83.50
2019-02-21T18:21:54.528Z,84.40
2019-02-21T18:24:27.586Z,86.40
2019-02-21T18:27:00.607Z,87.90
2019-02-21T18:29:34.384Z,89.80
2019-02-21T18:32:07.325Z,89.70
2019-02-21T18:34:40.445Z,90.00
2019-02-21T18:37:14.945Z,88.50
2019-02-21T18:39:48.247Z,90.10
2019-02-21T18:42:21.195Z,90.50
2019-02-21T18:44:54.233Z,90.80
2019-02-21T18:47:27.511Z,90.40
2019-02-21T18:50:00.533Z,90.10
2019-02-21T18:52:33.585Z,90.40
2019-02-21T18:55:06.485Z,90.30
2019-02-21T18:57:39.503Z,89.60
2019-02-21T19:00:12.455Z,92.10
2019-02-21T19:02:45.843Z,92.60
2019-02-21T19:05:18.867Z,93.10
2019-02-21T19:08:00.818Z,93.00
2019-02-21T19:10:26.505Z,93.40
2019-02-21T19:13:00.034Z,93.10
2019-02-21T19:15:32.973Z,92.30
2019-02-21T19:18:05.781Z,91.70
2019-02-21T19:20:38.777Z,91.50
2019-02-21T19:23:12.136Z,90.80
2019-02-21T19:25:44.960Z,90.30
2019-02-21T19:28:17.986Z,90.30
2019-02-21T19:30:51.187Z,89.60
2019-02-21T19:33:24.165Z,89.30
2019-02-21T19:35:57.164Z,90.60
2019-02-21T19:38:30.071Z,90.60
2019-02-21T19:41:02.985Z,91.00
2019-02-21T19:43:35.859Z,90.50
2019-02-21T19:46:09.886Z,90.20
2019-02-21T19:48:42.688Z,90.40
2019-02-21T19:51:15.810Z,90.30
2019-02-21T19:53:49.047Z,90.20
2019-02-21T19:56:22.064Z,90.40
2019-02-21T19:58:54.939Z,90.90
2019-02-21T20:01:27.816Z,91.00
2019-02-21T20:04:01.347Z,91.10
2019-02-21T20:06:35.249Z,90.60
2019-02-21T20:09:08.206Z,90.50
2019-02-21T20:11:41.048Z,92.90
2019-02-21T20:14:14.010Z,92.00
2019-02-21T20:16:47.130Z,91.70
2019-02-21T20:19:19.931Z,90.90
2019-02-21T20:21:54.527Z,90.90
2019-02-21T20:24:27.567Z,90.70
2019-02-21T20:27:00.663Z,90.80
2019-02-21T20:29:33.784Z,91.90
2019-02-21T20:32:06.712Z,91.20
2019-02-21T20:34:40.428Z,92.00
2019-02-21T20:37:13.331Z,91.80
2019-02-21T20:39:47.148Z,92.70
2019-02-21T20:42:20.227Z,92.70
2019-02-21T20:44:53.054Z,92.70
2019-02-21T20:47:26.169Z,93.00
2019-02-21T20:49:58.970Z,92.70
2019-02-21T20:52:31.817Z,92.10
2019-02-21T20:55:04.765Z,92.40
2019-02-21T20:57:37.765Z,91.80
2019-02-21T21:00:10.954Z,91.60
2019-02-21T21:02:43.776Z,91.40
2019-02-21T21:05:16.668Z,92.30
2019-02-21T21:07:50.077Z,91.70
2019-02-21T21:10:23.008Z,93.10
2019-02-21T21:12:55.827Z,93.50
2019-02-21T21:15:29.066Z,93.00
2019-02-21T21:18:02.042Z,93.20
2019-02-21T21:20:34.865Z,93.20
2019-02-21T21:23:07.830Z,92.90
2019-02-21T21:25:40.865Z,93.10
2019-02-21T21:28:13.965Z,92.70
2019-02-21T21:30:46.893Z,92.70
2019-02-21T21:33:19.847Z,92.50
2019-02-21T21:35:53.108Z,93.00
2019-02-21T21:38:26.051Z,93.00
2019-02-21T21:40:59.005Z,92.30
2019-02-21T21:43:31.847Z,92.90
2019-02-21T21:46:04.824Z,93.10
2019-02-21T21:48:37.866Z,92.70
2019-02-21T21:51:10.639Z,92.40
2019-02-21T21:53:43.590Z,92.60
2019-02-21T21:56:16.408Z,92.10
2019-02-21T21:58:49.248Z,91.80
2019-02-21T22:01:22.286Z,91.40
2019-02-21T22:03:55.314Z,91.30
2019-02-21T22:06:28.264Z,91.80
2019-02-21T22:09:04.832Z,91.30
2019-02-21T22:11:36.105Z,91.60
2019-02-21T22:14:08.986Z,92.10
2019-02-21T22:16:42.024Z,91.80
2019-02-21T22:19:14.944Z,91.50
2019-02-21T22:21:47.744Z,91.30
2019-02-21T22:24:20.685Z,92.00
2019-02-21T22:26:53.583Z,92.50
2019-02-21T22:29:26.905Z,92.00
2019-02-21T22:31:59.904Z,91.40
2019-02-21T22:34:32.885Z,91.90
2019-02-21T22:37:06.026Z,90.10
2019-02-21T22:39:38.904Z,90.60
2019-02-21T22:42:11.845Z,91.20
2019-02-21T22:44:45.245Z,90.60
2019-02-21T22:47:18.065Z,90.80
2019-02-21T22:49:51.129Z,86.00
2019-02-21T22:52:24.484Z,84.60
2019-02-21T22:55:09.054Z,83.80
2019-02-21T22:57:32.050Z,82.40
2019-02-21T23:00:05.084Z,82.30
2019-02-21T23:02:38.005Z,83.30
2019-02-21T23:05:11.245Z,82.90
2019-02-21T23:07:44.113Z,83.20
2019-02-21T23:10:17.205Z,83.20
2019-02-21T23:12:50.125Z,82.10
2019-02-21T23:15:23.205Z,80.20
2019-02-21T23:17:56.087Z,83.00
2019-02-21T23:20:28.964Z,85.00
2019-02-21T23:23:01.925Z,85.00
2019-02-21T23:25:35.345Z,86.20
2019-02-21T23:28:08.226Z,88.60
2019-02-21T23:30:41.105Z,87.00
2019-02-21T23:33:14.047Z,81.90
2019-02-21T23:35:46.947Z,82.30
2019-02-21T23:38:20.284Z,83.30
2019-02-21T23:40:53.109Z,80.80
2019-02-21T23:43:26.006Z,79.70
2019-02-21T23:45:58.965Z,80.50
2019-02-21T23:48:32.433Z,81.30
2019-02-21T23:51:05.605Z,81.20
2019-02-21T23:53:38.585Z,81.90
2019-02-21T23:56:11.646Z,82.10
2019-02-21T23:58:44.585Z,81.30
